Time;durP1;ratioP1;P1;durP2;ratioP2;P2;SDS_P1;SDS_P2;PMS_P1;PMS_P2;Temp;Humidity;BMP_temperature;BMP_pressure;BME280_temperature;BME280_humidity;BME280_pressure;Samples;Min_cycle;Max_cycle;Signal;HPM_P1;HPM_P2
2022/09/25 00:00:35;;;;;;;2.80;2.60;;;;;;;;;;5003947;28;20042;-54
2022/09/25 00:03:01;;;;;;;4.47;2.60;;;;;;;;;;5006465;28;20030;-55
2022/09/25 00:05:27;;;;;;;2.70;2.42;;;;;;;;;;5005028;28;20465;-55
2022/09/25 00:07:55;;;;;;;3.15;2.75;;;;;;;;;;5004129;28;20386;-54
2022/09/25 00:10:24;;;;;;;2.92;2.72;;;;;;;;;;5005329;28;20048;-55
2022/09/25 00:12:50;;;;;;;2.70;2.50;;;;;;;;;;5006713;28;20025;-51
2022/09/25 00:15:16;;;;;;;4.10;3.00;;;;;;;;;;5005589;28;20042;-54
2022/09/25 00:17:42;;;;;;;3.72;2.72;;;;;;;;;;5004582;28;20076;-53
2022/09/25 00:20:09;;;;;;;3.40;2.78;;;;;;;;;;5006841;28;20034;-52
2022/09/25 00:22:35;;;;;;;3.22;2.90;;;;;;;;;;5010947;28;20445;-54
2022/09/25 00:25:01;;;;;;;3.75;2.88;;;;;;;;;;5009553;28;20430;-54
2022/09/25 00:27:27;;;;;;;6.15;2.88;;;;;;;;;;5008382;28;20054;-53
2022/09/25 00:29:52;;;;;;;3.20;3.00;;;;;;;;;;5007803;28;20037;-55
2022/09/25 00:32:18;;;;;;;4.18;2.90;;;;;;;;;;5009507;28;20120;-56
2022/09/25 00:34:44;;;;;;;4.60;2.85;;;;;;;;;;5008914;28;20128;-53
2022/09/25 00:37:10;;;;;;;5.88;3.40;;;;;;;;;;5010435;28;20026;-55
2022/09/25 00:39:35;;;;;;;3.80;3.40;;;;;;;;;;5004656;28;20062;-52
2022/09/25 00:42:01;;;;;;;2.95;2.75;;;;;;;;;;5010060;28;20060;-51
2022/09/25 00:44:59;;;;;;;4.03;2.63;;;;;;;;;;5009629;28;20064;-53
2022/09/25 00:47:40;;;;;;;4.15;2.72;;;;;;;;;;5008297;28;20077;-55
2022/09/25 00:50:22;;;;;;;2.70;2.50;;;;;;;;;;5007816;28;20053;-55
2022/09/25 00:52:49;;;;;;;2.38;2.20;;;;;;;;;;5008808;28;20734;-52
2022/09/25 00:55:14;;;;;;;2.97;2.78;;;;;;;;;;5007002;28;20042;-53
2022/09/25 00:57:44;;;;;;;3.67;2.42;;;;;;;;;;5010717;28;20037;-54
2022/09/25 01:00:11;;;;;;;4.93;2.28;;;;;;;;;;5007289;28;20074;-54
2022/09/25 01:02:44;;;;;;;3.83;2.67;;;;;;;;;;5008511;28;20536;-54
2022/09/25 01:05:13;;;;;;;2.75;2.50;;;;;;;;;;5009148;28;20548;-52
2022/09/25 01:07:42;;;;;;;4.63;2.38;;;;;;;;;;5007692;28;20525;-52
2022/09/25 01:10:09;;;;;;;3.08;2.67;;;;;;;;;;5007541;28;20061;-54
2022/09/25 01:12:37;;;;;;;4.78;2.75;;;;;;;;;;5010088;28;20394;-54
2022/09/25 01:15:08;;;;;;;3.97;2.85;;;;;;;;;;5005432;28;20402;-55
2022/09/25 01:17:36;;;;;;;3.92;2.90;;;;;;;;;;5006975;28;20092;-56
2022/09/25 01:20:49;;;;;;;4.90;3.33;;;;;;;;;;5003720;28;20065;-54
2022/09/25 01:23:27;;;;;;;3.42;3.10;;;;;;;;;;4964885;28;20061;-53
2022/09/25 01:26:25;;;;;;;4.38;3.45;;;;;;;;;;4965873;28;20039;-55
2022/09/25 01:29:20;;;;;;;3.88;3.58;;;;;;;;;;4926069;29;20490;-54
2022/09/25 01:31:58;;;;;;;6.10;3.38;;;;;;;;;;4924794;29;20040;-54
2022/09/25 01:34:41;;;;;;;4.30;3.42;;;;;;;;;;4929898;29;20050;-55
2022/09/25 01:37:08;;;;;;;3.90;3.42;;;;;;;;;;4928647;29;20055;-51
2022/09/25 01:39:38;;;;;;;3.60;3.40;;;;;;;;;;4927186;29;20139;-54
2022/09/25 01:42:15;;;;;;;3.72;3.53;;;;;;;;;;4929019;29;20038;-54
2022/09/25 01:44:52;;;;;;;5.43;3.47;;;;;;;;;;4929684;29;20043;-54
2022/09/25 01:47:25;;;;;;;3.38;3.15;;;;;;;;;;4928732;29;20059;-53
2022/09/25 01:49:56;;;;;;;3.92;3.35;;;;;;;;;;4927218;29;20036;-54
2022/09/25 01:52:24;;;;;;;;;;;;;;;;;;4912530;29;20044;-56
2022/09/25 01:54:59;;;;;;;5.32;3.53;;;;;;;;;;4961592;28;20545;-53
2022/09/25 01:57:52;;;;;;;8.95;3.33;;;;;;;;;;4968361;28;20034;-56
2022/09/25 02:00:20;;;;;;;8.65;3.28;;;;;;;;;;4964510;28;20064;-49
2022/09/25 02:03:05;;;;;;;3.65;2.92;;;;;;;;;;4965272;28;20170;-55
2022/09/25 02:05:38;;;;;;;14.30;3.25;;;;;;;;;;4982768;28;20041;-52
2022/09/25 02:08:08;;;;;;;7.13;3.25;;;;;;;;;;5008127;28;20034;-53
2022/09/25 02:10:39;;;;;;;5.50;3.10;;;;;;;;;;5003191;28;20053;-53
2022/09/25 02:13:09;;;;;;;4.28;2.90;;;;;;;;;;5005315;28;20068;-55
2022/09/25 02:15:47;;;;;;;7.88;3.50;;;;;;;;;;5007737;28;20034;-54
2022/09/25 02:21:11;;;;;;;4.72;3.40;;;;;;;;;;4986211;28;20050;-52
2022/09/25 02:23:49;;;;;;;8.57;3.30;;;;;;;;;;4989008;28;20586;-53
2022/09/25 02:26:23;;;;;;;4.07;3.38;;;;;;;;;;4991720;28;21595;-55
2022/09/25 02:28:52;;;;;;;5.68;2.90;;;;;;;;;;4989590;28;20379;-54
2022/09/25 02:31:20;;;;;;;5.38;3.13;;;;;;;;;;4989432;28;20045;-56
2022/09/25 02:33:46;;;;;;;3.20;2.95;;;;;;;;;;4991184;28;20064;-56
2022/09/25 02:36:18;;;;;;;3.85;3.17;;;;;;;;;;4991262;28;20061;-55
2022/09/25 02:38:45;;;;;;;3.50;3.08;;;;;;;;;;4991404;28;20026;-56
2022/09/25 02:41:43;;;;;;;3.45;2.83;;;;;;;;;;4988259;28;20026;-53
2022/09/25 02:44:30;;;;;;;6.72;2.80;;;;;;;;;;4994355;28;20077;-51
2022/09/25 02:47:14;;;;;;;5.50;3.30;;;;;;;;;;5006726;28;20050;-52
2022/09/25 02:49:53;;;;;;;5.22;3.08;;;;;;;;;;5007055;28;20125;-55
2022/09/25 02:52:43;;;;;;;3.25;3.05;;;;;;;;;;5008619;28;20482;-54
2022/09/25 02:55:18;;;;;;;5.03;3.35;;;;;;;;;;5002647;28;20061;-55
2022/09/25 02:57:55;;;;;;;4.25;2.70;;;;;;;;;;5007237;28;20060;-54
2022/09/25 03:00:22;;;;;;;2.95;2.75;;;;;;;;;;5004169;28;20074;-54
2022/09/25 03:02:52;;;;;;;3.58;3.28;;;;;;;;;;5007580;28;20478;-53
2022/09/25 03:05:18;;;;;;;8.65;4.18;;;;;;;;;;5002404;28;20793;-52
2022/09/25 03:10:30;;;;;;;5.80;3.50;;;;;;;;;;4991620;28;20076;-54
2022/09/25 03:12:56;;;;;;;4.80;4.07;;;;;;;;;;5000998;28;20110;-54
2022/09/25 03:15:23;;;;;;;8.20;4.10;;;;;;;;;;4985839;28;20129;-55
2022/09/25 03:17:51;;;;;;;4.30;3.47;;;;;;;;;;4987012;28;20023;-54
2022/09/25 03:20:16;;;;;;;4.05;3.38;;;;;;;;;;4987113;28;20595;-55
2022/09/25 03:22:42;;;;;;;3.60;3.30;;;;;;;;;;4983952;28;20030;-53
2022/09/25 03:25:08;;;;;;;3.38;3.17;;;;;;;;;;4984255;28;20031;-53
2022/09/25 03:27:33;;;;;;;3.47;3.17;;;;;;;;;;4988780;28;20031;-55
2022/09/25 03:29:59;;;;;;;4.93;3.67;;;;;;;;;;4996997;28;20145;-56
2022/09/25 03:32:24;;;;;;;8.43;3.78;;;;;;;;;;5007804;28;20087;-55
2022/09/25 03:34:50;;;;;;;6.25;4.15;;;;;;;;;;5006731;28;20069;-54
2022/09/25 03:37:15;;;;;;;4.38;4.05;;;;;;;;;;5004009;28;20088;-54
2022/09/25 03:39:41;;;;;;;5.40;4.00;;;;;;;;;;5006661;28;20041;-55
2022/09/25 03:42:06;;;;;;;7.07;3.85;;;;;;;;;;5007055;28;20029;-55
2022/09/25 03:44:32;;;;;;;4.55;3.95;;;;;;;;;;5004425;28;20030;-55
2022/09/25 03:46:57;;;;;;;6.40;4.00;;;;;;;;;;5005194;28;20514;-55
2022/09/25 03:49:23;;;;;;;3.00;2.83;;;;;;;;;;5005603;28;20084;-55
2022/09/25 03:51:49;;;;;;;4.30;3.42;;;;;;;;;;5006748;28;20157;-55
2022/09/25 03:54:14;;;;;;;3.15;2.95;;;;;;;;;;5005081;28;20526;-53
2022/09/25 03:56:40;;;;;;;3.83;3.33;;;;;;;;;;5008291;28;20066;-53
2022/09/25 03:59:06;;;;;;;6.00;2.80;;;;;;;;;;5009942;28;20061;-54
2022/09/25 04:01:32;;;;;;;3.15;2.80;;;;;;;;;;5011927;28;20029;-56
2022/09/25 04:04:01;;;;;;;3.17;2.90;;;;;;;;;;5008745;28;20041;-55
2022/09/25 04:06:27;;;;;;;3.55;2.60;;;;;;;;;;5008557;28;20067;-55
2022/09/25 04:08:53;;;;;;;2.75;2.58;;;;;;;;;;5007990;28;20049;-55
2022/09/25 04:11:21;;;;;;;3.35;2.70;;;;;;;;;;5009239;28;20703;-51
2022/09/25 04:13:47;;;;;;;6.15;2.80;;;;;;;;;;5010164;28;20077;-55
2022/09/25 04:16:14;;;;;;;2.85;2.65;;;;;;;;;;5009879;28;20064;-55
2022/09/25 04:18:41;;;;;;;7.30;2.67;;;;;;;;;;5008052;28;20738;-53
2022/09/25 04:21:09;;;;;;;3.35;3.08;;;;;;;;;;5011272;28;20026;-54
2022/09/25 04:23:35;;;;;;;5.00;2.80;;;;;;;;;;5011015;28;20030;-54
2022/09/25 04:26:02;;;;;;;3.00;2.80;;;;;;;;;;5011633;28;20033;-52
2022/09/25 04:28:31;;;;;;;4.30;2.45;;;;;;;;;;5010694;28;20038;-56
2022/09/25 04:30:57;;;;;;;3.42;2.70;;;;;;;;;;5009438;28;20084;-52
2022/09/25 04:36:07;;;;;;;3.17;2.67;;;;;;;;;;5007355;28;20042;-54
2022/09/25 04:38:32;;;;;;;3.60;3.15;;;;;;;;;;5008014;28;20368;-55
2022/09/25 04:41:00;;;;;;;3.47;2.50;;;;;;;;;;5008052;28;20018;-50
2022/09/25 04:43:30;;;;;;;6.20;2.70;;;;;;;;;;5006370;28;20037;-55
2022/09/25 04:46:03;;;;;;;2.83;2.45;;;;;;;;;;5008164;28;20042;-56
2022/09/25 04:48:29;;;;;;;3.60;3.30;;;;;;;;;;5009780;28;20021;-54
2022/09/25 04:50:55;;;;;;;9.57;3.15;;;;;;;;;;5007232;28;20041;-54
2022/09/25 04:53:21;;;;;;;4.10;2.92;;;;;;;;;;5007351;28;20038;-55
2022/09/25 04:55:47;;;;;;;4.25;3.00;;;;;;;;;;5007745;28;20030;-55
2022/09/25 04:58:13;;;;;;;3.75;2.92;;;;;;;;;;5009273;28;20083;-54
2022/09/25 05:00:39;;;;;;;4.97;3.05;;;;;;;;;;5006450;28;20133;-54
2022/09/25 05:03:05;;;;;;;3.22;3.03;;;;;;;;;;5009671;28;20034;-55
2022/09/25 05:05:31;;;;;;;5.40;2.63;;;;;;;;;;5007236;28;20042;-55
2022/09/25 05:07:58;;;;;;;3.25;3.00;;;;;;;;;;5009895;28;20105;-54
2022/09/25 05:10:26;;;;;;;2.58;2.35;;;;;;;;;;5005663;28;20086;-55
2022/09/25 05:12:57;;;;;;;3.08;2.53;;;;;;;;;;5007838;28;20049;-51
2022/09/25 05:15:24;;;;;;;3.90;2.65;;;;;;;;;;5002629;28;20467;-56
2022/09/25 05:17:58;;;;;;;2.80;2.60;;;;;;;;;;5007555;28;20030;-54
2022/09/25 05:20:24;;;;;;;2.50;2.20;;;;;;;;;;5007274;28;20462;-56
2022/09/25 05:22:53;;;;;;;2.30;2.20;;;;;;;;;;5008910;28;20022;-52
2022/09/25 05:25:22;;;;;;;5.40;2.72;;;;;;;;;;5007329;28;20403;-55
2022/09/25 05:27:49;;;;;;;2.80;2.60;;;;;;;;;;5008314;28;20041;-55
2022/09/25 05:30:16;;;;;;;2.97;2.50;;;;;;;;;;5005652;28;20156;-56
2022/09/25 05:32:52;;;;;;;9.68;2.60;;;;;;;;;;5006488;28;20168;-51
2022/09/25 05:35:19;;;;;;;3.38;2.30;;;;;;;;;;5008268;28;20452;-54
2022/09/25 05:37:45;;;;;;;10.82;3.15;;;;;;;;;;5010684;28;20120;-55
2022/09/25 05:40:14;;;;;;;5.78;2.58;;;;;;;;;;5006359;28;20446;-54
2022/09/25 05:42:42;;;;;;;3.22;2.92;;;;;;;;;;5003821;28;20021;-52
2022/09/25 05:45:08;;;;;;;3.80;2.95;;;;;;;;;;5002422;28;20046;-56
2022/09/25 05:47:34;;;;;;;3.55;2.45;;;;;;;;;;5005194;28;20096;-54
2022/09/25 05:49:59;;;;;;;4.80;2.78;;;;;;;;;;5007936;28;20062;-52
2022/09/25 05:52:25;;;;;;;3.03;2.58;;;;;;;;;;5006421;28;20482;-55
2022/09/25 05:54:50;;;;;;;2.78;2.58;;;;;;;;;;5004818;28;20096;-53
2022/09/25 05:57:16;;;;;;;3.03;2.65;;;;;;;;;;5007818;28;20117;-55
2022/09/25 05:59:41;;;;;;;3.25;2.28;;;;;;;;;;5008895;28;20042;-53
2022/09/25 06:02:11;;;;;;;3.00;2.80;;;;;;;;;;5009106;28;20429;-55
2022/09/25 06:04:36;;;;;;;2.70;2.50;;;;;;;;;;5006467;28;20041;-53
2022/09/25 06:07:02;;;;;;;3.28;2.95;;;;;;;;;;5007314;28;20037;-55
2022/09/25 06:09:28;;;;;;;4.45;3.13;;;;;;;;;;5005796;28;20495;-56
2022/09/25 06:11:53;;;;;;;3.00;2.80;;;;;;;;;;5004557;28;20104;-55
2022/09/25 06:14:20;;;;;;;4.32;2.80;;;;;;;;;;4999451;28;20074;-53
2022/09/25 06:16:51;;;;;;;3.45;3.00;;;;;;;;;;5006151;28;20083;-54
2022/09/25 06:19:17;;;;;;;3.47;3.10;;;;;;;;;;5004831;28;20562;-52
2022/09/25 06:21:43;;;;;;;3.10;2.90;;;;;;;;;;5004860;28;20100;-54
2022/09/25 06:24:12;;;;;;;4.13;3.20;;;;;;;;;;5002803;28;20046;-55
2022/09/25 06:29:02;;;;;;;3.00;2.80;;;;;;;;;;5057820;27;20387;-55
2022/09/25 06:31:28;;;;;;;3.80;2.80;;;;;;;;;;5027657;28;20128;-54
2022/09/25 06:33:54;;;;;;;5.55;3.53;;;;;;;;;;5030278;28;20036;-51
2022/09/25 06:36:21;;;;;;;4.10;3.13;;;;;;;;;;5050759;28;20493;-54
2022/09/25 06:38:48;;;;;;;2.90;2.70;;;;;;;;;;5053939;28;20521;-54
2022/09/25 06:41:14;;;;;;;3.45;2.85;;;;;;;;;;5052115;28;20041;-52
2022/09/25 06:43:40;;;;;;;3.67;2.60;;;;;;;;;;5056098;28;20386;-53
2022/09/25 06:46:06;;;;;;;2.95;2.65;;;;;;;;;;5057524;28;20549;-53
2022/09/25 06:48:32;;;;;;;5.63;3.20;;;;;;;;;;5055993;28;20230;-51
2022/09/25 06:50:59;;;;;;;3.38;3.08;;;;;;;;;;5056634;28;20115;-52
2022/09/25 06:53:25;;;;;;;5.40;3.00;;;;;;;;;;5056648;28;20028;-56
2022/09/25 06:55:54;;;;;;;3.20;3.00;;;;;;;;;;5031100;28;20393;-54
2022/09/25 06:58:22;;;;;;;3.25;3.00;;;;;;;;;;5033751;28;20041;-56
2022/09/25 07:00:53;;;;;;;6.78;2.95;;;;;;;;;;5027978;28;20180;-54
2022/09/25 07:06:06;;;;;;;5.07;2.38;;;;;;;;;;5047333;28;22362;-54
2022/09/25 07:08:33;;;;;;;2.80;2.60;;;;;;;;;;5033908;28;20028;-55
2022/09/25 07:11:00;;;;;;;2.50;2.30;;;;;;;;;;5053357;28;20029;-55
2022/09/25 07:13:28;;;;;;;2.95;2.22;;;;;;;;;;5048362;28;20018;-56
2022/09/25 07:15:55;;;;;;;3.63;2.45;;;;;;;;;;5048794;28;20098;-56
2022/09/25 07:18:23;;;;;;;4.20;2.40;;;;;;;;;;5049593;28;20025;-55
2022/09/25 07:20:49;;;;;;;2.95;2.72;;;;;;;;;;5051598;28;20052;-54
2022/09/25 07:23:17;;;;;;;5.57;2.60;;;;;;;;;;5051084;28;20028;-50
2022/09/25 07:25:44;;;;;;;2.30;2.10;;;;;;;;;;5052423;28;21247;-56
2022/09/25 07:28:13;;;;;;;2.50;2.30;;;;;;;;;;5050518;28;20140;-54
2022/09/25 07:30:42;;;;;;;2.10;2.00;;;;;;;;;;5050721;28;20127;-55
2022/09/25 07:33:08;;;;;;;2.42;2.22;;;;;;;;;;5053394;28;20052;-54
2022/09/25 07:35:35;;;;;;;5.20;2.30;;;;;;;;;;5049757;28;20517;-54
2022/09/25 07:38:02;;;;;;;2.65;1.80;;;;;;;;;;5051680;28;20492;-54
2022/09/25 07:40:30;;;;;;;4.20;2.20;;;;;;;;;;5037486;28;20115;-53
2022/09/25 07:43:14;;;;;;;2.15;1.95;;;;;;;;;;5036865;28;20073;-51
2022/09/25 07:45:47;;;;;;;2.42;2.33;;;;;;;;;;5035177;28;20823;-53
2022/09/25 07:48:13;;;;;;;2.97;1.70;;;;;;;;;;5039289;28;20028;-55
2022/09/25 07:50:40;;;;;;;2.10;1.60;;;;;;;;;;5037832;28;20049;-53
2022/09/25 07:53:05;;;;;;;6.07;1.70;;;;;;;;;;5040541;28;20381;-51
2022/09/25 07:55:31;;;;;;;3.30;1.50;;;;;;;;;;5031984;28;20045;-54
2022/09/25 07:57:57;;;;;;;1.50;1.40;;;;;;;;;;5033561;28;20033;-53
2022/09/25 08:00:23;;;;;;;1.20;1.20;;;;;;;;;;5037205;28;20041;-54
2022/09/25 08:02:56;;;;;;;1.40;1.30;;;;;;;;;;5037893;28;20075;-54
2022/09/25 08:05:22;;;;;;;1.40;1.40;;;;;;;;;;5038354;28;20102;-52
2022/09/25 08:07:48;;;;;;;1.30;1.30;;;;;;;;;;5029975;28;20055;-52
2022/09/25 08:10:14;;;;;;;1.60;1.50;;;;;;;;;;5034274;28;20045;-51
2022/09/25 08:12:40;;;;;;;1.50;1.40;;;;;;;;;;5037407;28;20512;-53
2022/09/25 08:15:06;;;;;;;1.70;1.60;;;;;;;;;;5039882;28;20037;-51
2022/09/25 08:17:32;;;;;;;2.05;1.83;;;;;;;;;;5042004;28;20453;-55
2022/09/25 08:19:58;;;;;;;2.75;1.40;;;;;;;;;;5041169;28;20045;-56
2022/09/25 08:22:24;;;;;;;1.60;1.50;;;;;;;;;;5039216;28;20087;-55
2022/09/25 08:24:50;;;;;;;1.70;1.60;;;;;;;;;;5033405;28;20099;-56
2022/09/25 08:27:15;;;;;;;4.50;1.30;;;;;;;;;;5035120;28;20053;-52
2022/09/25 08:29:41;;;;;;;1.50;1.40;;;;;;;;;;5036181;28;20041;-51
2022/09/25 08:32:07;;;;;;;1.60;1.50;;;;;;;;;;5041969;28;20394;-55
2022/09/25 08:34:34;;;;;;;4.43;1.60;;;;;;;;;;5042269;28;20105;-56
2022/09/25 08:36:59;;;;;;;1.60;1.50;;;;;;;;;;5024257;28;20044;-54
2022/09/25 08:39:25;;;;;;;3.05;1.80;;;;;;;;;;5040282;28;20041;-56
2022/09/25 08:41:53;;;;;;;3.47;1.88;;;;;;;;;;5042487;28;20478;-58
2022/09/25 08:44:40;;;;;;;2.17;1.98;;;;;;;;;;5038471;28;20826;-55
2022/09/25 08:50:07;;;;;;;2.25;1.63;;;;;;;;;;5038093;28;20052;-53
2022/09/25 08:52:34;;;;;;;1.80;1.70;;;;;;;;;;5024801;28;20041;-55
2022/09/25 08:55:00;;;;;;;1.38;1.23;;;;;;;;;;5039767;28;20036;-51
2022/09/25 08:57:39;;;;;;;3.92;1.70;;;;;;;;;;5042283;28;20029;-52
2022/09/25 09:57:55;;;;;;;2.22;2.05;;;;;;;;;;4786440;23;22846;-46
2022/09/25 10:00:41;;;;;;;2.78;2.38;;;;;;;;;;4889089;29;20532;-44
2022/09/25 10:03:30;;;;;;;3.35;2.10;;;;;;;;;;4881566;29;20043;-47
2022/09/25 10:06:16;;;;;;;2.75;2.30;;;;;;;;;;4900500;29;20113;-51
2022/09/25 10:09:02;;;;;;;3.28;2.30;;;;;;;;;;4895856;29;20500;-48
2022/09/25 10:11:58;;;;;;;2.10;1.98;;;;;;;;;;4897289;29;20058;-47
2022/09/25 10:14:46;;;;;;;4.50;2.50;;;;;;;;;;4904048;29;20060;-51
2022/09/25 10:17:34;;;;;;;2.17;2.08;;;;;;;;;;4904938;29;20065;-48
2022/09/25 10:20:22;;;;;;;3.13;2.83;;;;;;;;;;4902403;29;20077;-46
2022/09/25 10:23:45;;;;;;;2.78;2.58;;;;;;;;;;4897059;29;20042;-49
2022/09/25 10:26:35;;;;;;;;;;;;;;;;;;4905581;29;20028;-50
2022/09/25 10:29:21;;;;;;;3.03;2.55;;;;;;;;;;4905122;29;20575;-48
2022/09/25 10:32:10;;;;;;;2.47;2.28;;;;;;;;;;4899438;29;20048;-47
2022/09/25 10:34:56;;;;;;;3.10;1.83;;;;;;;;;;4897154;29;20140;-51
2022/09/25 10:37:42;;;;;;;1.88;1.77;;;;;;;;;;4903325;29;20529;-49
2022/09/25 10:40:32;;;;;;;2.00;1.90;;;;;;;;;;4898512;29;20071;-45
2022/09/25 10:43:19;;;;;;;1.80;1.70;;;;;;;;;;4898961;29;20056;-47
2022/09/25 10:46:15;;;;;;;2.00;1.90;;;;;;;;;;4899110;29;20068;-50
2022/09/25 10:52:21;;;;;;;1.77;1.67;;;;;;;;;;4897044;29;20050;-46
2022/09/25 10:55:19;;;;;;;1.90;1.80;;;;;;;;;;4899177;29;20040;-48
2022/09/25 10:58:15;;;;;;;1.88;1.77;;;;;;;;;;4902765;29;20054;-50
2022/09/25 11:01:02;;;;;;;1.85;1.70;;;;;;;;;;4921306;29;20079;-48
2022/09/25 11:03:55;;;;;;;4.60;1.90;;;;;;;;;;4915728;29;20036;-49
2022/09/25 11:06:51;;;;;;;2.30;2.10;;;;;;;;;;4923815;29;20044;-48
2022/09/25 11:09:43;;;;;;;3.55;1.80;;;;;;;;;;4940843;28;20050;-51
2022/09/25 11:12:29;;;;;;;;;;;;;;;;;;4936336;28;20391;-48
2022/09/25 11:15:22;;;;;;;2.92;1.77;;;;;;;;;;4936281;28;19934;-48
2022/09/25 11:18:38;;;;;;;5.20;1.88;;;;;;;;;;4943628;28;20035;-47
2022/09/25 11:21:55;;;;;;;1.88;1.77;;;;;;;;;;4939495;28;20027;-45
2022/09/25 11:25:16;;;;;;;2.60;1.70;;;;;;;;;;4942156;28;20078;-51
2022/09/25 11:28:40;;;;;;;2.08;1.90;;;;;;;;;;4943538;28;20048;-49
2022/09/25 11:31:41;;;;;;;2.63;2.10;;;;;;;;;;4934796;28;20078;-50
2022/09/25 11:34:59;;;;;;;2.58;1.77;;;;;;;;;;4934426;28;20619;-51
2022/09/25 11:37:53;;;;;;;2.83;1.55;;;;;;;;;;4927736;28;20074;-45
2022/09/25 11:41:11;;;;;;;3.40;1.67;;;;;;;;;;4939230;28;20039;-45
2022/09/25 11:44:20;;;;;;;1.60;1.50;;;;;;;;;;4933151;28;20078;-46
2022/09/25 11:47:32;;;;;;;2.58;1.65;;;;;;;;;;4944483;28;20498;-45
2022/09/25 11:50:22;;;;;;;3.70;1.67;;;;;;;;;;4941048;28;20047;-47
2022/09/25 11:53:45;;;;;;;2.92;1.60;;;;;;;;;;4929477;28;20513;-48
2022/09/25 11:56:48;;;;;;;2.08;1.73;;;;;;;;;;4938804;28;20042;-45
2022/09/25 11:59:55;;;;;;;1.80;1.70;;;;;;;;;;4936078;28;20056;-46
2022/09/25 12:02:44;;;;;;;2.63;1.50;;;;;;;;;;4937925;28;21061;-45
2022/09/25 12:05:48;;;;;;;1.98;1.88;;;;;;;;;;4943937;28;20042;-48
2022/09/25 12:08:47;;;;;;;2.08;1.35;;;;;;;;;;4938669;28;20601;-46
2022/09/25 12:11:42;;;;;;;1.52;1.42;;;;;;;;;;4947141;28;20118;-47
2022/09/25 12:14:54;;;;;;;1.40;1.38;;;;;;;;;;4942640;28;20514;-47
2022/09/25 12:18:03;;;;;;;1.38;1.30;;;;;;;;;;4948977;28;20053;-46
2022/09/25 12:20:59;;;;;;;1.55;1.45;;;;;;;;;;4942105;28;20042;-47
2022/09/25 12:23:58;;;;;;;1.85;1.30;;;;;;;;;;4937183;28;20089;-47
2022/09/25 12:26:51;;;;;;;1.63;1.50;;;;;;;;;;4939811;28;20039;-46
2022/09/25 12:29:49;;;;;;;4.03;1.70;;;;;;;;;;4941231;28;20058;-46
2022/09/25 12:33:11;;;;;;;1.45;1.42;;;;;;;;;;4941791;28;20055;-48
2022/09/25 12:36:07;;;;;;;2.17;1.60;;;;;;;;;;4844915;29;20528;-46
2022/09/25 12:39:00;;;;;;;1.60;1.50;;;;;;;;;;4848391;29;20489;-46
2022/09/25 12:42:06;;;;;;;1.45;1.35;;;;;;;;;;4850691;29;20094;-45
2022/09/25 12:44:54;;;;;;;1.60;1.50;;;;;;;;;;4847212;29;20485;-46
2022/09/25 12:47:56;;;;;;;1.50;1.40;;;;;;;;;;4848484;29;20053;-49
2022/09/25 12:50:58;;;;;;;1.23;1.20;;;;;;;;;;4851191;29;20399;-49
2022/09/25 12:53:46;;;;;;;1.85;1.40;;;;;;;;;;4844183;29;20559;-48
2022/09/25 12:56:50;;;;;;;2.47;1.98;;;;;;;;;;4851457;29;20064;-52
2022/09/25 12:59:41;;;;;;;3.60;1.70;;;;;;;;;;4844501;29;20053;-45
2022/09/25 13:02:35;;;;;;;1.77;1.45;;;;;;;;;;4850315;29;20040;-49
2022/09/25 13:05:36;;;;;;;1.60;1.50;;;;;;;;;;4850944;29;20041;-46
2022/09/25 13:08:28;;;;;;;1.63;1.30;;;;;;;;;;4852064;29;20053;-46
2022/09/25 13:11:24;;;;;;;2.60;1.50;;;;;;;;;;4891285;28;20508;-50
2022/09/25 13:14:35;;;;;;;1.13;1.13;;;;;;;;;;4940171;28;20404;-49
2022/09/25 13:17:21;;;;;;;3.45;2.85;;;;;;;;;;4945485;28;20024;-50
2022/09/25 13:20:25;;;;;;;1.27;1.10;;;;;;;;;;4937377;28;20035;-52
2022/09/25 13:23:25;;;;;;;1.30;1.30;;;;;;;;;;4939807;28;20074;-45
2022/09/25 13:26:15;;;;;;;1.70;1.60;;;;;;;;;;4938489;28;20058;-46
2022/09/25 13:29:12;;;;;;;6.47;1.60;;;;;;;;;;4934104;28;20516;-50
2022/09/25 13:32:17;;;;;;;1.33;1.33;;;;;;;;;;4925598;28;20093;-45
2022/09/25 13:35:16;;;;;;;1.42;1.20;;;;;;;;;;4941078;28;20040;-47
2022/09/25 13:40:41;;;;;;;1.67;1.30;;;;;;;;;;4933174;28;20488;-48
2022/09/25 13:41:23;;;;;;;1.42;1.20;;;;;;;;;;4940576;28;20143;-47
2022/09/25 13:44:41;;;;;;;1.20;1.10;;;;;;;;;;4935825;28;20054;-48
2022/09/25 13:47:26;;;;;;;3.80;1.50;;;;;;;;;;4946373;28;20038;-49
2022/09/25 13:50:26;;;;;;;1.40;1.30;;;;;;;;;;4938431;28;20031;-50
2022/09/25 13:53:19;;;;;;;1.27;1.27;;;;;;;;;;4933599;28;20043;-48
2022/09/25 13:56:12;;;;;;;1.58;1.48;;;;;;;;;;4941455;28;20030;-48
2022/09/25 13:59:00;;;;;;;1.27;1.17;;;;;;;;;;4943880;28;20110;-48
2022/09/25 14:01:54;;;;;;;1.38;1.23;;;;;;;;;;4946810;28;20043;-46
2022/09/25 14:04:40;;;;;;;2.35;1.20;;;;;;;;;;4937568;28;20090;-47
2022/09/25 14:07:27;;;;;;;1.20;1.10;;;;;;;;;;4942881;28;20039;-45
2022/09/25 14:10:13;;;;;;;1.83;1.30;;;;;;;;;;4945371;28;20067;-47
2022/09/25 14:12:59;;;;;;;6.97;1.40;;;;;;;;;;4921233;28;20033;-46
2022/09/25 14:15:45;;;;;;;1.20;1.20;;;;;;;;;;4938748;28;20075;-46
2022/09/25 14:18:40;;;;;;;1.55;1.45;;;;;;;;;;4936277;28;20530;-47
2022/09/25 14:21:28;;;;;;;4.47;1.27;;;;;;;;;;4931967;28;20488;-49
2022/09/25 14:24:19;;;;;;;1.20;1.20;;;;;;;;;;4931964;28;20047;-52
2022/09/25 14:27:26;;;;;;;1.27;1.10;;;;;;;;;;4932951;28;20030;-52
2022/09/25 14:30:13;;;;;;;1.70;1.40;;;;;;;;;;4940730;28;20043;-48
2022/09/25 14:33:15;;;;;;;1.25;1.10;;;;;;;;;;4933912;28;20126;-45
2022/09/25 14:36:21;;;;;;;1.48;1.38;;;;;;;;;;4933427;28;20046;-48
2022/09/25 14:39:28;;;;;;;3.20;1.40;;;;;;;;;;4939836;28;20102;-51
2022/09/25 14:42:31;;;;;;;1.35;1.20;;;;;;;;;;4944572;28;20035;-50
2022/09/25 14:45:49;;;;;;;3.90;1.25;;;;;;;;;;4937282;28;20035;-52
2022/09/25 14:48:44;;;;;;;4.63;1.25;;;;;;;;;;4936215;28;20051;-51
2022/09/25 14:51:42;;;;;;;1.58;1.30;;;;;;;;;;4941240;28;20138;-49
2022/09/25 14:54:35;;;;;;;1.42;1.30;;;;;;;;;;4937536;28;20069;-50
2022/09/25 14:57:27;;;;;;;1.77;1.25;;;;;;;;;;4942617;28;20035;-46
2022/09/25 15:00:16;;;;;;;2.88;1.23;;;;;;;;;;4946221;28;20043;-50
2022/09/25 15:03:03;;;;;;;1.10;1.10;;;;;;;;;;4944577;28;20039;-52
2022/09/25 15:05:49;;;;;;;1.27;1.17;;;;;;;;;;4940255;28;21052;-49
2022/09/25 15:08:40;;;;;;;1.10;1.10;;;;;;;;;;4939423;28;20045;-45
2022/09/25 15:11:26;;;;;;;1.35;1.25;;;;;;;;;;4942599;28;20054;-49
2022/09/25 15:14:18;;;;;;;0.93;0.90;;;;;;;;;;4939981;28;20057;-48
2022/09/25 15:17:21;;;;;;;0.93;0.93;;;;;;;;;;4939579;28;20867;-49
2022/09/25 15:20:12;;;;;;;1.25;1.15;;;;;;;;;;4943724;28;20071;-50
2022/09/25 15:23:05;;;;;;;1.17;1.00;;;;;;;;;;4939880;28;20046;-47
2022/09/25 15:25:53;;;;;;;1.60;1.05;;;;;;;;;;4941041;28;20492;-50
2022/09/25 15:28:40;;;;;;;1.45;1.08;;;;;;;;;;4934792;28;20074;-49
2022/09/25 15:31:33;;;;;;;2.10;1.13;;;;;;;;;;4939600;28;20030;-48
2022/09/25 15:34:21;;;;;;;1.33;1.10;;;;;;;;;;4938293;28;20073;-47
2022/09/25 15:37:19;;;;;;;2.00;1.20;;;;;;;;;;4935446;28;20035;-45
2022/09/25 15:40:21;;;;;;;1.10;1.10;;;;;;;;;;4944488;28;20403;-51
2022/09/25 15:43:13;;;;;;;1.40;1.10;;;;;;;;;;4941638;28;20054;-49
2022/09/25 15:46:07;;;;;;;1.05;0.90;;;;;;;;;;4938358;28;20042;-49
2022/09/25 15:48:58;;;;;;;1.15;1.02;;;;;;;;;;4942526;28;20058;-50
2022/09/25 15:51:49;;;;;;;1.90;1.05;;;;;;;;;;4943701;28;20039;-46
2022/09/25 15:54:43;;;;;;;0.98;0.90;;;;;;;;;;4945467;28;20520;-47
2022/09/25 15:57:30;;;;;;;1.80;1.20;;;;;;;;;;4940497;28;20036;-50
2022/09/25 16:06:41;;;;;;;1.45;0.90;;;;;;;;;;4945453;28;20391;-48
2022/09/25 16:09:32;;;;;;;1.02;0.82;;;;;;;;;;4941914;28;20101;-48
2022/09/25 16:12:41;;;;;;;1.25;1.20;;;;;;;;;;4940987;28;20043;-49
2022/09/25 16:15:26;;;;;;;1.85;1.08;;;;;;;;;;4935186;28;20043;-48
2022/09/25 16:18:18;;;;;;;1.92;1.02;;;;;;;;;;4935462;28;20393;-51
2022/09/25 16:21:18;;;;;;;1.23;1.13;;;;;;;;;;4936034;28;20042;-46
2022/09/25 16:24:08;;;;;;;1.10;1.10;;;;;;;;;;4948569;28;20050;-51
2022/09/25 16:27:00;;;;;;;2.15;1.20;;;;;;;;;;4936324;28;20853;-50
2022/09/25 16:29:45;;;;;;;3.20;1.08;;;;;;;;;;4940115;28;20047;-51
2022/09/25 16:32:31;;;;;;;0.90;0.88;;;;;;;;;;4937008;28;20428;-49
2022/09/25 16:35:46;;;;;;;0.70;0.70;;;;;;;;;;4942781;28;20063;-46
2022/09/25 16:38:34;;;;;;;1.95;0.80;;;;;;;;;;4943452;28;20043;-46
2022/09/25 16:41:21;;;;;;;1.15;1.15;;;;;;;;;;4945177;28;20170;-46
2022/09/25 16:44:16;;;;;;;1.08;1.08;;;;;;;;;;4942972;28;20047;-46
2022/09/25 16:47:16;;;;;;;1.00;1.00;;;;;;;;;;4939605;28;20046;-49
2022/09/25 16:50:01;;;;;;;0.90;0.90;;;;;;;;;;4932613;28;20035;-47
2022/09/25 16:52:48;;;;;;;0.98;0.77;;;;;;;;;;4935902;28;20500;-46
2022/09/25 16:55:46;;;;;;;3.15;1.55;;;;;;;;;;4932577;28;20031;-49
2022/09/25 16:58:31;;;;;;;1.15;1.00;;;;;;;;;;4949039;28;20105;-47
2022/09/25 17:01:19;;;;;;;1.10;1.10;;;;;;;;;;4936003;28;20039;-47
2022/09/25 17:04:05;;;;;;;0.98;0.98;;;;;;;;;;4936257;28;20138;-49
2022/09/25 17:06:51;;;;;;;2.65;1.10;;;;;;;;;;4949023;28;20046;-49
2022/09/25 17:09:37;;;;;;;1.00;1.00;;;;;;;;;;4941777;28;20047;-50
2022/09/25 17:12:24;;;;;;;1.55;1.00;;;;;;;;;;4943583;28;20034;-51
2022/09/25 17:15:15;;;;;;;0.95;0.95;;;;;;;;;;4944601;28;20493;-50
2022/09/25 17:18:05;;;;;;;0.90;0.90;;;;;;;;;;4946065;28;20412;-50
2022/09/25 17:20:52;;;;;;;3.65;1.17;;;;;;;;;;4944611;28;20199;-46
2022/09/25 17:23:38;;;;;;;1.30;1.15;;;;;;;;;;4941841;28;20035;-46